createdAt,value
2022-11-14T00:00:17.032Z,9.94
2022-11-14T00:03:06.369Z,9.80
2022-11-14T00:05:51.495Z,9.85
2022-11-14T00:08:36.977Z,9.84
2022-11-14T00:11:22.377Z,9.82
2022-11-14T00:14:07.756Z,9.74
2022-11-14T00:16:53.268Z,9.77
2022-11-14T00:19:38.620Z,9.76
2022-11-14T00:22:24.023Z,9.69
2022-11-14T00:25:10.849Z,9.47
2022-11-14T00:27:58.811Z,9.70
2022-11-14T00:30:49.174Z,9.68
2022-11-14T00:33:34.302Z,9.87
2022-11-14T00:36:19.843Z,9.76
2022-11-14T00:39:05.421Z,9.50
2022-11-14T00:41:51.460Z,9.29
2022-11-14T00:44:36.740Z,9.47
2022-11-14T00:47:22.255Z,9.55
2022-11-14T00:50:08.222Z,9.52
2022-11-14T00:52:53.927Z,9.36
2022-11-14T00:55:39.507Z,9.55
2022-11-14T00:58:25.138Z,9.53
2022-11-14T01:01:10.735Z,9.67
2022-11-14T01:03:56.038Z,9.55
2022-11-14T01:06:41.490Z,9.54
2022-11-14T01:09:27.274Z,9.63
2022-11-14T01:12:12.549Z,9.71
2022-11-14T01:14:57.967Z,9.70
2022-11-14T01:17:43.354Z,9.76
2022-11-14T01:20:28.883Z,9.67
2022-11-14T01:23:16.361Z,9.50
2022-11-14T01:26:04.082Z,9.87
2022-11-14T01:28:49.756Z,9.92
2022-11-14T01:31:35.276Z,9.93
2022-11-14T01:34:22.471Z,10.10
2022-11-14T01:37:07.877Z,9.93
2022-11-14T01:39:53.285Z,10.12
2022-11-14T01:42:38.805Z,10.06
2022-11-14T01:45:51.937Z,10.08
2022-11-14T01:48:45.776Z,10.25
2022-11-14T01:51:47.055Z,10.01
2022-11-14T01:54:38.914Z,10.03
2022-11-14T01:57:29.751Z,10.12
2022-11-14T02:00:15.807Z,10.12
2022-11-14T02:03:01.179Z,10.02
2022-11-14T02:05:48.811Z,10.07
2022-11-14T02:08:35.121Z,9.93
2022-11-14T02:11:20.418Z,10.06
2022-11-14T02:14:07.371Z,10.08
2022-11-14T02:17:22.240Z,9.84
2022-11-14T02:20:11.437Z,10.14
2022-11-14T02:22:57.261Z,9.80
2022-11-14T02:25:42.280Z,9.57
2022-11-14T02:28:28.211Z,9.31
2022-11-14T02:31:14.640Z,9.55
2022-11-14T02:34:00.035Z,9.84
2022-11-14T02:36:45.600Z,9.52
2022-11-14T02:39:31.303Z,9.59
2022-11-14T02:42:16.590Z,9.29
2022-11-14T02:45:01.930Z,9.47
2022-11-14T02:47:47.304Z,9.32
2022-11-14T02:50:32.920Z,9.71
2022-11-14T02:53:18.252Z,9.58
2022-11-14T02:56:03.839Z,9.43
2022-11-14T02:58:49.622Z,9.46
2022-11-14T03:01:35.065Z,9.62
2022-11-14T03:04:20.346Z,9.70
2022-11-14T03:07:06.040Z,9.41
2022-11-14T03:09:51.391Z,9.57
2022-11-14T03:12:37.031Z,9.43
2022-11-14T03:15:24.138Z,9.51
2022-11-14T03:18:09.798Z,9.20
2022-11-14T03:20:54.904Z,9.36
2022-11-14T03:23:40.487Z,9.35
2022-11-14T03:26:26.224Z,9.21
2022-11-14T03:29:11.518Z,9.14
2022-11-14T03:31:56.950Z,9.29
2022-11-14T03:34:42.929Z,8.25
2022-11-14T03:37:28.207Z,8.53
2022-11-14T03:40:13.539Z,8.78
2022-11-14T03:42:58.751Z,8.98
2022-11-14T03:45:44.313Z,8.94
2022-11-14T03:48:31.081Z,8.95
2022-11-14T03:51:17.009Z,9.00
2022-11-14T03:54:02.559Z,9.02
2022-11-14T03:56:47.855Z,9.08
2022-11-14T03:59:33.192Z,8.75
2022-11-14T04:02:18.512Z,8.86
2022-11-14T04:05:04.263Z,8.85
2022-11-14T04:07:50.357Z,8.41
2022-11-14T04:10:35.975Z,7.32
2022-11-14T04:13:21.321Z,7.62
2022-11-14T04:16:08.459Z,7.57
2022-11-14T04:18:54.265Z,7.99
2022-11-14T04:21:39.704Z,8.22
2022-11-14T04:24:25.202Z,7.97
2022-11-14T04:27:10.963Z,7.92
2022-11-14T04:29:56.662Z,7.97
2022-11-14T04:32:41.963Z,8.04
2022-11-14T04:35:27.355Z,8.10
2022-11-14T04:38:12.720Z,8.27
2022-11-14T04:40:58.118Z,8.11
2022-11-14T04:43:48.093Z,8.37
2022-11-14T04:46:35.737Z,8.31
2022-11-14T04:49:22.063Z,8.43
2022-11-14T04:52:07.481Z,8.32
2022-11-14T04:54:53.063Z,8.36
2022-11-14T04:57:38.691Z,8.29
2022-11-14T05:00:25.027Z,8.53
2022-11-14T05:03:10.597Z,8.45
2022-11-14T05:06:01.099Z,8.54
2022-11-14T05:08:48.558Z,8.63
2022-11-14T05:11:33.841Z,8.66
2022-11-14T05:14:19.294Z,7.95
2022-11-14T05:17:05.754Z,8.01
2022-11-14T05:19:51.165Z,8.32
2022-11-14T05:22:36.902Z,8.23
2022-11-14T05:25:23.050Z,8.28
2022-11-14T05:28:08.144Z,8.43
2022-11-14T05:30:53.443Z,8.48
2022-11-14T05:33:39.468Z,8.21
2022-11-14T05:36:24.851Z,8.44
2022-11-14T05:39:10.081Z,8.63
2022-11-14T05:41:55.669Z,8.62
2022-11-14T05:44:41.224Z,8.68
2022-11-14T05:47:26.627Z,8.57
2022-11-14T05:50:12.101Z,8.56
2022-11-14T05:52:57.468Z,8.53
2022-11-14T05:55:43.026Z,8.57
2022-11-14T05:58:29.222Z,8.68
2022-11-14T06:01:18.246Z,8.43
2022-11-14T06:04:06.858Z,8.61
2022-11-14T06:06:52.276Z,7.96
2022-11-14T06:09:37.566Z,8.55
2022-11-14T06:12:23.034Z,8.68
2022-11-14T06:15:08.678Z,8.65
2022-11-14T06:17:54.907Z,8.72
2022-11-14T06:20:40.207Z,8.58
2022-11-14T06:23:25.487Z,8.80
2022-11-14T06:26:23.535Z,8.90
2022-11-14T06:29:10.315Z,8.88
2022-11-14T06:31:56.084Z,8.96
2022-11-14T06:34:41.174Z,8.56
2022-11-14T06:37:29.385Z,8.54
2022-11-14T06:40:17.849Z,8.38
2022-11-14T06:43:03.223Z,8.73
2022-11-14T06:45:48.565Z,8.67
2022-11-14T06:48:35.764Z,8.62
2022-11-14T06:51:21.432Z,8.73
2022-11-14T06:54:06.878Z,8.86
2022-11-14T06:56:52.115Z,9.03
2022-11-14T06:59:37.593Z,8.53
2022-11-14T07:02:22.974Z,8.48
2022-11-14T07:05:08.468Z,8.82
2022-11-14T07:07:53.798Z,8.94
2022-11-14T07:10:40.611Z,8.82
2022-11-14T07:13:25.848Z,9.05
2022-11-14T07:16:11.364Z,8.98
2022-11-14T07:19:00.708Z,9.28
2022-11-14T07:21:46.433Z,9.30
2022-11-14T07:24:31.765Z,9.38
2022-11-14T07:27:17.228Z,9.47
2022-11-14T07:30:02.717Z,9.34
2022-11-14T07:32:55.264Z,9.42
2022-11-14T07:35:41.941Z,9.52
2022-11-14T07:38:28.020Z,9.28
2022-11-14T07:41:16.169Z,8.41
2022-11-14T07:44:01.511Z,8.81
2022-11-14T07:46:46.750Z,8.82
2022-11-14T07:49:32.031Z,9.03
2022-11-14T07:52:18.066Z,9.33
2022-11-14T07:55:03.746Z,9.79
2022-11-14T07:57:53.609Z,9.53
2022-11-14T08:00:39.580Z,9.40
2022-11-14T08:03:24.854Z,9.59
2022-11-14T08:06:11.979Z,10.00
2022-11-14T08:08:57.713Z,9.50
2022-11-14T08:11:49.255Z,9.04
2022-11-14T08:14:34.871Z,9.17
2022-11-14T08:17:21.431Z,9.37
2022-11-14T08:20:08.921Z,9.84
2022-11-14T08:23:09.923Z,9.68
2022-11-14T08:25:57.900Z,9.73
2022-11-14T08:28:43.199Z,9.67
2022-11-14T08:31:28.811Z,9.76
2022-11-14T08:34:14.417Z,9.58
2022-11-14T08:37:01.389Z,10.43
2022-11-14T08:39:47.116Z,10.39
2022-11-14T08:42:32.608Z,10.19
2022-11-14T08:45:17.831Z,10.54
2022-11-14T08:48:03.284Z,10.49
2022-11-14T08:50:48.713Z,10.39
2022-11-14T08:53:34.585Z,9.90
2022-11-14T08:56:19.843Z,10.42
2022-11-14T08:59:05.934Z,10.10
2022-11-14T09:01:51.776Z,10.51
2022-11-14T09:04:37.423Z,10.68
2022-11-14T09:07:23.147Z,10.34
2022-11-14T09:10:08.959Z,10.68
2022-11-14T09:12:58.710Z,10.92
2022-11-14T09:15:44.659Z,10.82
2022-11-14T09:18:31.209Z,10.84
2022-11-14T09:21:17.050Z,10.88
2022-11-14T09:24:02.508Z,11.12
2022-11-14T09:26:55.036Z,10.61
2022-11-14T09:29:42.089Z,10.58
2022-11-14T09:32:28.346Z,11.02
2022-11-14T09:35:14.128Z,11.18
2022-11-14T09:38:05.080Z,10.55
2022-11-14T09:41:09.011Z,11.03
2022-11-14T09:44:00.566Z,10.62
2022-11-14T09:46:52.478Z,10.27
2022-11-14T09:49:46.494Z,10.08
2022-11-14T09:52:46.387Z,10.76
2022-11-14T09:55:37.084Z,11.17
2022-11-14T09:58:23.135Z,11.44
2022-11-14T10:01:17.905Z,11.44
2022-11-14T10:04:12.644Z,12.20
2022-11-14T10:07:35.252Z,12.39
2022-11-14T10:10:39.661Z,10.91
2022-11-14T10:13:27.683Z,11.95
2022-11-14T10:16:40.750Z,11.30
2022-11-14T10:19:41.466Z,11.39
2022-11-14T10:22:55.121Z,12.02
2022-11-14T10:26:02.822Z,12.12
2022-11-14T10:28:54.559Z,11.49
2022-11-14T10:31:52.178Z,12.13
2022-11-14T10:34:56.919Z,13.27
2022-11-14T10:38:04.928Z,12.50
2022-11-14T10:40:54.405Z,12.11
2022-11-14T10:43:50.923Z,12.24
2022-11-14T10:46:45.497Z,13.15
2022-11-14T10:49:33.485Z,12.45
2022-11-14T10:52:26.017Z,13.30
2022-11-14T10:55:16.687Z,12.52
2022-11-14T10:58:02.256Z,13.08
2022-11-14T11:00:47.523Z,13.60
2022-11-14T11:03:45.192Z,13.84
2022-11-14T11:06:30.741Z,13.64
2022-11-14T11:09:45.160Z,14.17
2022-11-14T11:12:37.405Z,14.52
2022-11-14T11:15:28.417Z,13.39
2022-11-14T11:18:28.160Z,13.47
2022-11-14T11:21:16.916Z,13.44
2022-11-14T11:24:02.208Z,13.34
2022-11-14T11:26:47.607Z,14.52
2022-11-14T11:29:33.020Z,13.68
2022-11-14T11:32:26.473Z,14.48
2022-11-14T11:35:15.260Z,14.30
2022-11-14T11:38:03.325Z,14.69
2022-11-14T11:40:52.682Z,14.96
2022-11-14T11:43:57.323Z,15.50
2022-11-14T11:47:01.250Z,16.38
2022-11-14T11:49:54.170Z,16.90
2022-11-14T11:52:43.402Z,18.53
2022-11-14T11:55:54.796Z,19.60
2022-11-14T11:58:48.502Z,20.49
2022-11-14T12:01:34.045Z,20.01
2022-11-14T12:04:19.393Z,20.83
2022-11-14T12:07:15.648Z,20.52
2022-11-14T12:10:11.288Z,20.55
2022-11-14T12:13:45.565Z,22.43
2022-11-14T12:17:03.573Z,23.54
2022-11-14T12:20:07.165Z,23.38
2022-11-14T12:23:30.058Z,21.67
2022-11-14T12:26:35.009Z,22.32
2022-11-14T12:29:46.175Z,22.68
2022-11-14T12:32:37.309Z,23.71
2022-11-14T12:35:28.053Z,23.88
2022-11-14T12:38:16.115Z,24.68
2022-11-14T12:41:02.244Z,25.20
2022-11-14T12:43:47.777Z,25.24
2022-11-14T12:47:05.504Z,25.65
2022-11-14T12:49:53.987Z,26.43
2022-11-14T12:52:54.107Z,26.70
2022-11-14T12:55:45.783Z,26.22
2022-11-14T12:58:31.267Z,25.71
2022-11-14T13:01:30.854Z,26.14
2022-11-14T13:04:39.412Z,26.42
2022-11-14T13:07:43.553Z,25.73
2022-11-14T13:10:38.986Z,25.88
2022-11-14T13:13:44.118Z,25.30
2022-11-14T13:16:51.329Z,25.26
2022-11-14T13:20:04.556Z,25.21
2022-11-14T13:22:50.354Z,24.89
2022-11-14T13:25:35.694Z,24.81
2022-11-14T13:28:36.427Z,24.93
2022-11-14T13:31:42.141Z,24.66
2022-11-14T13:35:06.857Z,23.86
2022-11-14T13:38:04.384Z,22.84
2022-11-14T13:41:22.897Z,21.32
2022-11-14T13:44:27.723Z,20.31
2022-11-14T13:47:48.727Z,19.28
2022-11-14T13:50:40.437Z,18.57
2022-11-14T13:53:32.337Z,18.34
2022-11-14T13:56:48.875Z,18.06
2022-11-14T13:59:46.451Z,17.50
2022-11-14T14:03:10.675Z,17.72
2022-11-14T14:06:14.179Z,17.61
2022-11-14T14:09:22.696Z,17.66
2022-11-14T14:12:27.113Z,17.56
2022-11-14T14:15:35.557Z,17.38
2022-11-14T14:18:45.867Z,17.22
2022-11-14T14:22:16.783Z,17.29
2022-11-14T14:25:22.617Z,17.07
2022-11-14T14:28:16.998Z,16.98
2022-11-14T14:31:12.949Z,16.69
2022-11-14T14:33:58.632Z,16.46
2022-11-14T14:36:51.314Z,16.26
2022-11-14T14:39:37.055Z,16.43
2022-11-14T14:42:23.107Z,16.48
2022-11-14T14:45:20.417Z,16.29
2022-11-14T14:48:18.308Z,16.40
2022-11-14T14:51:05.119Z,16.04
2022-11-14T14:53:54.197Z,16.06
2022-11-14T14:56:53.056Z,15.94
2022-11-14T14:59:42.203Z,16.11
2022-11-14T15:02:28.713Z,15.63
2022-11-14T15:05:23.344Z,15.61
2022-11-14T15:08:14.248Z,15.93
2022-11-14T15:11:01.849Z,15.75
2022-11-14T15:13:52.499Z,15.66
2022-11-14T15:16:38.265Z,15.64
2022-11-14T15:19:25.969Z,15.62
2022-11-14T15:22:21.081Z,15.67
2022-11-14T15:25:12.232Z,15.34
2022-11-14T15:28:01.159Z,15.43
2022-11-14T15:30:57.913Z,15.25
2022-11-14T15:33:43.609Z,15.16
2022-11-14T15:36:28.852Z,15.14
2022-11-14T15:39:29.698Z,15.26
2022-11-14T15:42:24.185Z,15.12
2022-11-14T15:45:39.484Z,15.05
2022-11-14T15:48:25.016Z,15.03
2022-11-14T15:51:10.539Z,15.03
2022-11-14T15:53:55.732Z,15.28
2022-11-14T15:56:41.261Z,14.37
2022-11-14T15:59:29.255Z,14.26
2022-11-14T16:02:20.400Z,14.65
2022-11-14T16:05:06.533Z,14.40
2022-11-14T16:07:52.237Z,14.50
2022-11-14T16:10:56.401Z,14.41
2022-11-14T16:13:41.914Z,14.45
2022-11-14T16:16:27.423Z,14.12
2022-11-14T16:19:16.893Z,14.24
2022-11-14T16:22:03.671Z,14.24
2022-11-14T16:24:49.408Z,14.04
2022-11-14T16:27:34.699Z,14.16
2022-11-14T16:30:21.955Z,14.11
2022-11-14T16:33:09.210Z,14.02
2022-11-14T16:35:54.685Z,14.02
2022-11-14T16:38:40.089Z,13.95
2022-11-14T16:41:25.451Z,13.79
2022-11-14T16:44:15.758Z,13.86
2022-11-14T16:47:01.285Z,13.72
2022-11-14T16:49:46.744Z,13.79
2022-11-14T16:52:32.463Z,13.75
2022-11-14T16:55:18.047Z,13.52
2022-11-14T16:58:03.214Z,13.60
2022-11-14T17:00:49.159Z,13.49
2022-11-14T17:03:34.556Z,13.42
2022-11-14T17:06:19.940Z,13.54
2022-11-14T17:09:05.463Z,13.38
2022-11-14T17:11:50.839Z,12.78
2022-11-14T17:14:36.306Z,11.52
2022-11-14T17:17:21.957Z,11.80
2022-11-14T17:20:08.642Z,12.38
2022-11-14T17:22:55.238Z,11.82
2022-11-14T17:25:40.846Z,11.35
2022-11-14T17:28:26.146Z,12.11
2022-11-14T17:31:11.798Z,12.50
2022-11-14T17:33:59.012Z,12.14
2022-11-14T17:36:44.898Z,11.33
2022-11-14T17:39:30.087Z,11.54
2022-11-14T17:42:15.484Z,11.95
2022-11-14T17:45:01.539Z,11.70
2022-11-14T17:47:46.785Z,11.93
2022-11-14T17:50:37.377Z,12.21
2022-11-14T17:53:23.463Z,12.39
2022-11-14T17:56:21.562Z,11.36
2022-11-14T17:59:07.385Z,11.48
2022-11-14T18:01:55.939Z,11.20
2022-11-14T18:04:41.304Z,10.30
2022-11-14T18:07:26.606Z,10.88
2022-11-14T18:10:11.947Z,11.18
2022-11-14T18:12:57.462Z,11.19
2022-11-14T18:15:42.947Z,11.72
2022-11-14T18:18:31.300Z,10.98
2022-11-14T18:21:19.965Z,10.95
2022-11-14T18:24:05.562Z,11.52
2022-11-14T18:26:51.079Z,11.56
2022-11-14T18:29:36.540Z,11.45
2022-11-14T18:32:22.274Z,11.55
2022-11-14T18:35:08.068Z,10.81
2022-11-14T18:37:53.925Z,10.05
2022-11-14T18:40:44.209Z,10.20
2022-11-14T18:43:32.840Z,10.07
2022-11-14T18:46:21.716Z,10.92
2022-11-14T18:49:07.355Z,11.21
2022-11-14T18:51:52.715Z,11.63
2022-11-14T18:54:38.091Z,11.70
2022-11-14T18:57:23.582Z,11.64
2022-11-14T19:00:10.362Z,11.84
2022-11-14T19:02:55.858Z,12.18
2022-11-14T19:05:41.266Z,12.12
2022-11-14T19:08:26.712Z,12.09
2022-11-14T19:11:34.448Z,12.03
2022-11-14T19:14:20.617Z,11.63
2022-11-14T19:17:07.175Z,11.36
2022-11-14T19:19:55.602Z,11.31
2022-11-14T19:22:41.489Z,11.11
2022-11-14T19:25:26.725Z,11.33
2022-11-14T19:28:13.276Z,11.35
2022-11-14T19:31:03.118Z,11.50
2022-11-14T19:33:49.225Z,11.66
2022-11-14T19:39:41.431Z,11.17
2022-11-14T19:42:26.957Z,10.80
2022-11-14T19:45:12.184Z,10.97
2022-11-14T19:47:57.632Z,9.65
2022-11-14T19:50:43.555Z,10.30
2022-11-14T19:53:29.441Z,10.49
2022-11-14T19:56:17.920Z,10.51
2022-11-14T19:59:09.556Z,10.98
2022-11-14T20:01:58.332Z,11.03
2022-11-14T20:04:46.731Z,11.10
2022-11-14T20:07:33.229Z,11.07
2022-11-14T20:10:18.751Z,11.20
2022-11-14T20:13:08.650Z,10.88
2022-11-14T20:15:54.001Z,10.35
2022-11-14T20:18:41.426Z,10.36
2022-11-14T20:21:29.877Z,10.40
2022-11-14T20:24:21.367Z,10.30
2022-11-14T20:27:06.487Z,9.67
2022-11-14T20:29:52.041Z,9.80
2022-11-14T20:32:37.598Z,9.95
2022-11-14T20:35:41.641Z,10.00
2022-11-14T20:38:30.060Z,10.16
2022-11-14T20:41:16.047Z,10.22
2022-11-14T20:44:03.441Z,10.01
2022-11-14T20:46:49.372Z,9.35
2022-11-14T20:49:35.130Z,9.50
2022-11-14T20:52:20.572Z,10.10
2022-11-14T20:55:11.593Z,9.97
2022-11-14T20:57:57.752Z,10.07
2022-11-14T21:00:43.056Z,10.40
2022-11-14T21:03:29.087Z,10.57
2022-11-14T21:06:16.092Z,10.81
2022-11-14T21:09:01.687Z,10.71
2022-11-14T21:11:47.771Z,10.72
2022-11-14T21:14:33.219Z,10.64
2022-11-14T21:17:19.070Z,10.77
2022-11-14T21:20:04.994Z,10.83
2022-11-14T21:22:50.392Z,10.77
2022-11-14T21:25:35.869Z,10.73
2022-11-14T21:28:21.413Z,10.80
2022-11-14T21:31:20.328Z,10.01
2022-11-14T21:34:09.553Z,10.83
2022-11-14T21:36:54.984Z,10.59
2022-11-14T21:39:40.573Z,10.53
2022-11-14T21:42:26.306Z,10.64
2022-11-14T21:45:11.884Z,10.50
2022-11-14T21:47:57.748Z,10.58
2022-11-14T21:50:43.171Z,10.48
2022-11-14T21:53:29.329Z,10.19
2022-11-14T21:56:18.595Z,10.28
2022-11-14T21:59:14.540Z,10.08
2022-11-14T22:02:18.493Z,9.60
2022-11-14T22:05:04.439Z,9.48
2022-11-14T22:07:49.807Z,9.64
2022-11-14T22:10:35.199Z,9.77
2022-11-14T22:13:20.506Z,9.84
2022-11-14T22:16:07.625Z,8.92
2022-11-14T22:18:53.459Z,9.55
2022-11-14T22:21:39.372Z,9.76
2022-11-14T22:24:25.153Z,9.93
2022-11-14T22:27:10.398Z,10.13
2022-11-14T22:29:55.794Z,10.02
2022-11-14T22:32:41.403Z,9.89
2022-11-14T22:35:26.758Z,9.87
2022-11-14T22:38:12.275Z,9.76
2022-11-14T22:40:58.311Z,8.83
2022-11-14T22:43:43.997Z,9.39
2022-11-14T22:46:29.864Z,9.73
2022-11-14T22:49:20.656Z,9.33
2022-11-14T22:52:06.361Z,8.23
2022-11-14T22:54:51.765Z,8.18
2022-11-14T22:57:37.225Z,9.19
2022-11-14T23:00:22.755Z,9.55
2022-11-14T23:03:08.334Z,9.65
2022-11-14T23:05:53.611Z,9.76
2022-11-14T23:08:40.047Z,9.74
2022-11-14T23:11:28.387Z,9.87
2022-11-14T23:14:16.593Z,9.96
2022-11-14T23:17:02.446Z,9.70
2022-11-14T23:19:47.831Z,9.69
2022-11-14T23:22:33.290Z,9.55
2022-11-14T23:25:20.410Z,9.01
2022-11-14T23:28:05.730Z,8.10
2022-11-14T23:30:50.865Z,8.43
2022-11-14T23:33:36.695Z,8.13
2022-11-14T23:36:23.249Z,8.92
2022-11-14T23:39:08.623Z,9.33
2022-11-14T23:41:54.015Z,9.16
2022-11-14T23:44:39.368Z,9.44
2022-11-14T23:47:24.646Z,9.46
2022-11-14T23:50:10.497Z,9.50
2022-11-14T23:52:55.675Z,9.54
2022-11-14T23:55:42.138Z,9.55
2022-11-14T23:58:29.657Z,9.57
